Flight Track Log - Related Links

Times and Time Zones

All times are in EDT time to prevent confusion due to time zone crossing. See the EJA831 flight status page for this flight to view local times or setup timezone preferences in your user account.

Time Position Orientation Groundspeed Altitude Reporting Facility
EDT Latitude Longitude Course Direction KTS MPH feet Rate Location/Type
Tue 02:00:09 PM 34.6497 -78.6719 221° Southwest 236 272 3,600  Level Washington Center
Tue 02:01:09 PM 34.6269 -78.7394 248° West 258 297 5,700 1,250 Climbing Washington Center
Tue 02:02:09 PM 34.6097 -78.8344 258° West 271 312 6,100 200 Climbing Washington Center
Tue 02:03:09 PM 34.6092 -78.9331 270° West 282 325 6,100 100 Level Washington Center
Tue 02:04:09 PM 34.6106 -79.0289 271° West 289 333 6,300 1,100 Climbing Washington Center
Tue 02:05:00 PM 34.7747 -79.0796 221° Southwest  Level FlightAware Approximate
Tue 02:05:09 PM 34.5792 -79.1083 244° Southwest 264 304 8,300  Level Washington Center
Tue 02:06:57 PM 34.4869 -79.2553 233° Southwest 284 327 10,900 1,401 Climbing Jacksonville Center
Tue 02:07:56 PM 34.4311 -79.3431 232° Southwest 314 361 12,200 1,361 Climbing Jacksonville Center
Tue 02:08:56 PM 34.4253 -79.4339 266° West 314 361 13,600 850 Climbing Jacksonville Center
Tue 02:09:56 PM 34.4575 -79.5408 290° West 307 353 13,900 150 Climbing Jacksonville Center
Tue 02:10:56 PM 34.4831 -79.6458 286° West 316 364 13,900  Level Jacksonville Center
Tue 02:11:56 PM 34.5172 -79.7578 290° West 321 369 13,900  Level Jacksonville Center
Tue 02:12:56 PM 34.5383 -79.8528 285° West 328 377 13,900  Level Jacksonville Center
Tue 02:13:56 PM 34.5658 -79.9553 288° West 328 377 13,900 -211 Level Jacksonville Center
Tue 02:16:15 PM 34.6297 -80.2017 288° West 309 356 13,200 -588 Descending Atlanta Center
Tue 02:17:10 PM 34.6572 -80.2864 292° West 295 339 12,000 -1,190 Descending Atlanta Center
Tue 02:18:11 PM 34.7114 -80.3522 315° West 266 306 10,900 -1,339 Descending Atlanta Center
Tue 02:19:11 PM 34.7678 -80.4256 313° West 276 318 9,300 -1,240 Descending Atlanta Center
Tue 02:20:12 PM 34.8178 -80.4867 315° West 248 285 8,400 -1,230 Descending Atlanta Center
Tue 02:21:13 PM 34.8364 -80.5617 287° West 234 269 6,800 -1,672 Descending Atlanta Center
Tue 02:22:14 PM 34.8261 -80.6356 260° West 227 261 5,000 -1,884 Descending Atlanta Center
Tue 02:23:14 PM 34.8200 -80.7142 265° West 226 260 3,000 -1,240 Descending Atlanta Center
Tue 02:24:15 PM 34.8547 -80.7686 308° West 200 230 2,500 -234 Descending Atlanta Center
Tue 02:25:22 PM 34.9050 -80.7717 357° North 187 215 2,500  Level Atlanta Center

Login

Don't have an account? Register now (free) for customized features, flight alerts, and more!